CheckWX is a tool to help pilots better visualize weather data.  It is not intended as a substitute for an official pre-flight weather briefing.

14:04:33 UTC

CYQB METAR
Quebec / Jean Lesage International Airport
Quebec, Canada
Current

1 hour ago

CYQB 211300Z 25003KT 10SM OVC014 M01/M02 A3016 RMK SC8 VIS E 4 SLP219
Observed
Nov-21 @ 13:00 UTC
Wind
  • 250° at 3 KTS
Visibility
10 SM
Flight Rules
MVFR
Cloud Levels
  • Overcast at 1,400' AGL
Temperature
-1°C / 30°F
Dewpoint
-2°C / 28°F
Humidity
93%
Altimeter
30.16" Hg
Pressure
1021.32 hPa
Previous

1 hour ago

CYQB 211253Z 25003KT 10SM OVC014 M00/M02 A3016 RMK SC8 VIS E 3 SLP218
Observed
Nov-21 @ 12:53 UTC
Wind
  • 250° at 3 KTS
Visibility
10 SM
Flight Rules
MVFR
Cloud Levels
  • Overcast at 1,400' AGL
Temperature
C / 32°F
Dewpoint
-2°C / 28°F
Humidity
87%
Altimeter
30.16" Hg
Pressure
1021.32 hPa
Previous

2 hours ago

CYQB 211224Z 18003KT 10SM BKN015 OVC022 M00/M02 A3014 RMK SC7SC1 VIS E 3 SLP212
Observed
Nov-21 @ 12:24 UTC
Wind
  • 180° at 3 KTS
Visibility
10 SM
Flight Rules
MVFR
Cloud Levels
  • Broken at 1,500' AGL
  • Overcast at 2,200' AGL
Temperature
C / 32°F
Dewpoint
-2°C / 28°F
Humidity
87%
Altimeter
30.14" Hg
Pressure
1020.62 hPa